createdAt,value
2023-05-19T00:01:53.125Z,6.15
2023-05-19T00:04:20.085Z,6.64
2023-05-19T00:06:51.736Z,6.67
2023-05-19T00:09:18.531Z,7.00
2023-05-19T00:11:45.811Z,6.63
2023-05-19T00:14:12.950Z,6.28
2023-05-19T00:16:40.033Z,6.58
2023-05-19T00:19:10.040Z,6.64
2023-05-19T00:21:38.829Z,6.41
2023-05-19T00:24:06.561Z,6.32
2023-05-19T00:26:33.314Z,6.66
2023-05-19T00:28:59.982Z,6.62
2023-05-19T00:31:26.603Z,6.25
2023-05-19T00:33:53.256Z,6.48
2023-05-19T00:36:19.812Z,6.51
2023-05-19T00:38:46.296Z,6.32
2023-05-19T00:41:13.033Z,6.25
2023-05-19T00:43:39.567Z,6.41
2023-05-19T00:46:07.200Z,6.47
2023-05-19T00:48:33.785Z,6.20
2023-05-19T00:51:04.372Z,6.44
2023-05-19T00:53:34.358Z,6.29
2023-05-19T00:56:03.023Z,6.26
2023-05-19T00:58:32.582Z,5.97
2023-05-19T01:01:06.800Z,6.02
2023-05-19T01:03:36.132Z,6.09
2023-05-19T01:06:05.302Z,5.83
2023-05-19T01:08:34.774Z,5.55
2023-05-19T01:11:01.758Z,5.94
2023-05-19T01:13:30.267Z,6.09
2023-05-19T01:16:08.037Z,5.93
2023-05-19T01:18:45.584Z,5.93
2023-05-19T01:21:48.435Z,5.87
2023-05-19T01:24:46.816Z,5.93
2023-05-19T01:27:53.158Z,5.72
2023-05-19T01:30:26.260Z,5.73
2023-05-19T01:32:59.216Z,5.86
2023-05-19T01:35:27.758Z,5.83
2023-05-19T01:37:59.120Z,5.94
2023-05-19T01:40:28.623Z,5.87
2023-05-19T01:42:59.259Z,6.05
2023-05-19T01:45:29.653Z,6.17
2023-05-19T01:48:01.379Z,6.07
2023-05-19T01:50:30.188Z,5.74
2023-05-19T01:52:57.175Z,5.93
2023-05-19T01:55:24.047Z,5.55
2023-05-19T01:58:11.347Z,5.22
2023-05-19T02:00:52.856Z,5.73
2023-05-19T02:03:37.115Z,5.96
2023-05-19T02:06:26.690Z,5.51
2023-05-19T02:09:22.199Z,5.59
2023-05-19T02:12:06.140Z,5.41
2023-05-19T02:14:45.346Z,5.53
2023-05-19T02:17:17.934Z,5.60
2023-05-19T02:19:44.836Z,5.60
2023-05-19T02:22:11.519Z,5.12
2023-05-19T02:24:39.435Z,5.32
2023-05-19T02:27:06.269Z,5.40
2023-05-19T02:29:32.815Z,5.25
2023-05-19T02:32:01.967Z,5.18
2023-05-19T02:34:28.587Z,5.12
2023-05-19T02:36:56.439Z,5.17
2023-05-19T02:39:23.388Z,5.27
2023-05-19T02:41:50.228Z,5.19
2023-05-19T02:44:16.717Z,5.00
2023-05-19T02:46:43.325Z,5.06
2023-05-19T02:49:09.997Z,4.86
2023-05-19T02:51:36.525Z,4.74
2023-05-19T02:54:02.984Z,4.80
2023-05-19T02:56:29.565Z,4.86
2023-05-19T02:58:56.339Z,4.80
2023-05-19T03:01:23.108Z,4.77
2023-05-19T03:03:49.856Z,4.87
2023-05-19T03:06:18.018Z,5.04
2023-05-19T03:08:45.030Z,4.86
2023-05-19T03:11:11.525Z,4.76
2023-05-19T03:13:38.031Z,4.42
2023-05-19T03:16:04.768Z,4.70
2023-05-19T03:18:31.719Z,4.72
2023-05-19T03:20:58.262Z,4.73
2023-05-19T03:23:24.775Z,4.76
2023-05-19T03:25:51.312Z,4.98
2023-05-19T03:28:17.911Z,4.87
2023-05-19T03:30:44.533Z,4.35
2023-05-19T03:33:11.844Z,4.25
2023-05-19T03:35:38.482Z,4.29
2023-05-19T03:38:05.057Z,4.39
2023-05-19T03:40:31.787Z,4.54
2023-05-19T03:42:58.636Z,4.30
2023-05-19T03:45:25.187Z,4.54
2023-05-19T03:47:51.820Z,4.43
2023-05-19T03:50:18.456Z,4.36
2023-05-19T03:52:46.422Z,4.53
2023-05-19T03:55:14.603Z,4.22
2023-05-19T03:57:41.492Z,4.37
2023-05-19T04:00:11.162Z,4.32
2023-05-19T04:02:38.408Z,4.34
2023-05-19T04:05:05.362Z,4.39
2023-05-19T04:07:32.120Z,4.54
2023-05-19T04:09:58.646Z,4.36
2023-05-19T04:12:25.436Z,4.11
2023-05-19T04:14:52.024Z,4.33
2023-05-19T04:17:18.611Z,4.62
2023-05-19T04:19:45.181Z,4.33
2023-05-19T04:22:11.674Z,4.72
2023-05-19T04:24:38.384Z,4.94
2023-05-19T04:27:05.184Z,4.39
2023-05-19T04:29:32.617Z,4.23
2023-05-19T04:31:59.145Z,4.57
2023-05-19T04:34:25.572Z,4.40
2023-05-19T04:36:53.477Z,4.44
2023-05-19T04:39:21.368Z,4.42
2023-05-19T04:41:48.159Z,4.96
2023-05-19T04:44:18.053Z,4.93
2023-05-19T04:46:45.981Z,4.90
2023-05-19T04:49:12.637Z,4.99
2023-05-19T04:51:41.547Z,5.01
2023-05-19T04:54:08.491Z,5.14
2023-05-19T04:56:35.022Z,4.78
2023-05-19T04:59:01.699Z,5.14
2023-05-19T05:01:28.264Z,5.23
2023-05-19T05:03:58.928Z,5.23
2023-05-19T05:06:26.442Z,4.99
2023-05-19T05:08:53.025Z,5.45
2023-05-19T05:11:20.128Z,5.70
2023-05-19T05:13:47.122Z,5.79
2023-05-19T05:16:15.047Z,5.97
2023-05-19T05:18:44.683Z,5.64
2023-05-19T05:21:12.266Z,6.07
2023-05-19T05:23:39.173Z,6.32
2023-05-19T05:26:21.374Z,6.65
2023-05-19T05:28:48.022Z,6.34
2023-05-19T05:31:15.290Z,6.54
2023-05-19T05:33:43.044Z,7.00
2023-05-19T05:36:09.740Z,6.91
2023-05-19T05:38:36.465Z,6.79
2023-05-19T05:41:03.433Z,7.21
2023-05-19T05:43:30.521Z,7.24
2023-05-19T05:45:57.854Z,7.27
2023-05-19T05:48:24.890Z,7.78
2023-05-19T05:50:53.133Z,7.90
2023-05-19T05:53:21.442Z,8.01
2023-05-19T05:55:49.102Z,8.25
2023-05-19T05:58:16.897Z,8.27
2023-05-19T06:00:44.010Z,8.42
2023-05-19T06:03:11.852Z,8.51
2023-05-19T06:05:38.702Z,8.85
2023-05-19T06:08:06.136Z,9.32
2023-05-19T06:10:33.143Z,9.39
2023-05-19T06:12:59.911Z,9.59
2023-05-19T06:15:26.629Z,9.50
2023-05-19T06:17:54.612Z,9.62
2023-05-19T06:20:21.441Z,9.75
2023-05-19T06:22:48.177Z,10.35
2023-05-19T06:25:14.826Z,10.88
2023-05-19T06:27:41.607Z,10.64
2023-05-19T06:30:09.053Z,11.30
2023-05-19T06:32:35.575Z,11.57
2023-05-19T06:35:02.194Z,11.93
2023-05-19T06:37:28.679Z,12.23
2023-05-19T06:39:55.392Z,12.62
2023-05-19T06:42:22.847Z,12.85
2023-05-19T06:44:52.638Z,13.16
2023-05-19T06:47:19.861Z,13.43
2023-05-19T06:49:50.553Z,13.42
2023-05-19T06:52:17.409Z,13.58
2023-05-19T06:54:44.007Z,13.61
2023-05-19T06:57:10.482Z,14.08
2023-05-19T06:59:37.582Z,13.92
2023-05-19T07:02:04.757Z,13.80
2023-05-19T07:04:31.381Z,14.50
2023-05-19T07:06:58.633Z,15.12
2023-05-19T07:09:25.254Z,15.74
2023-05-19T07:11:51.757Z,15.81
2023-05-19T07:14:18.288Z,16.11
2023-05-19T07:16:44.950Z,15.93
2023-05-19T07:19:11.617Z,15.74
2023-05-19T07:21:38.265Z,16.35
2023-05-19T07:24:05.299Z,16.89
2023-05-19T07:26:32.002Z,16.85
2023-05-19T07:28:58.451Z,16.56
2023-05-19T07:31:25.030Z,16.71
2023-05-19T07:33:54.377Z,16.64
2023-05-19T07:36:21.634Z,16.49
2023-05-19T07:38:49.029Z,16.50
2023-05-19T07:41:15.707Z,16.42
2023-05-19T07:43:43.060Z,16.96
2023-05-19T07:46:09.584Z,16.44
2023-05-19T07:48:36.704Z,16.70
2023-05-19T07:51:03.533Z,17.45
2023-05-19T07:53:30.126Z,17.43
2023-05-19T07:55:58.531Z,17.79
2023-05-19T07:58:25.658Z,17.55
2023-05-19T08:00:53.251Z,17.68
2023-05-19T08:03:20.700Z,17.30
2023-05-19T08:05:47.694Z,17.44
2023-05-19T08:08:16.775Z,17.28
2023-05-19T08:10:43.677Z,16.73
2023-05-19T08:13:10.390Z,16.55
2023-05-19T08:15:37.566Z,16.66
2023-05-19T08:18:05.087Z,16.81
2023-05-19T08:20:32.376Z,16.99
2023-05-19T08:22:59.095Z,16.88
2023-05-19T08:25:25.583Z,16.98
2023-05-19T08:27:52.152Z,17.07
2023-05-19T08:30:18.637Z,17.45
2023-05-19T08:32:45.475Z,17.43
2023-05-19T08:35:12.183Z,17.65
2023-05-19T08:37:38.778Z,17.60
2023-05-19T08:40:08.559Z,17.95
2023-05-19T08:42:35.476Z,18.26
2023-05-19T08:45:03.521Z,18.58
2023-05-19T08:47:31.902Z,18.37
2023-05-19T08:50:07.747Z,17.86
2023-05-19T08:52:52.968Z,18.11
2023-05-19T08:55:50.181Z,18.77
2023-05-19T08:58:20.646Z,18.97
2023-05-19T09:00:49.310Z,18.68
2023-05-19T09:03:23.401Z,18.78
2023-05-19T09:05:51.177Z,18.61
2023-05-19T09:08:18.346Z,19.36
2023-05-19T09:10:45.216Z,18.84
2023-05-19T09:13:11.817Z,18.79
2023-05-19T09:15:41.215Z,18.69
2023-05-19T09:18:12.409Z,18.31
2023-05-19T09:20:42.856Z,18.45
2023-05-19T09:23:16.326Z,18.87
2023-05-19T09:25:50.166Z,19.04
2023-05-19T09:28:25.374Z,19.74
2023-05-19T09:31:10.849Z,18.50
2023-05-19T09:33:42.233Z,19.40
2023-05-19T09:36:11.488Z,19.53
2023-05-19T09:38:39.534Z,19.04
2023-05-19T09:41:08.791Z,19.57
2023-05-19T09:43:35.619Z,19.61
2023-05-19T09:46:09.203Z,19.81
2023-05-19T09:48:37.831Z,20.42
2023-05-19T09:51:10.083Z,20.36
2023-05-19T09:53:36.769Z,20.62
2023-05-19T09:56:03.704Z,20.19
2023-05-19T09:58:36.228Z,20.60
2023-05-19T10:01:05.324Z,20.80
2023-05-19T10:03:33.445Z,20.06
2023-05-19T10:06:03.829Z,20.29
2023-05-19T10:08:34.247Z,20.21
2023-05-19T10:11:02.871Z,20.64
2023-05-19T10:13:30.880Z,20.86
2023-05-19T10:15:59.970Z,21.04
2023-05-19T10:18:29.429Z,21.23
2023-05-19T10:20:58.003Z,20.80
2023-05-19T10:23:26.028Z,20.78
2023-05-19T10:25:59.740Z,20.96
2023-05-19T10:28:38.061Z,20.94
2023-05-19T10:31:13.398Z,20.66
2023-05-19T10:34:24.141Z,20.91
2023-05-19T10:37:16.889Z,21.12
2023-05-19T10:39:44.757Z,21.01
2023-05-19T10:42:24.750Z,21.44
2023-05-19T10:45:15.165Z,21.67
2023-05-19T10:47:42.396Z,22.09
2023-05-19T10:50:10.582Z,21.24
2023-05-19T10:52:39.427Z,21.25
2023-05-19T10:55:17.670Z,21.08
2023-05-19T10:58:00.491Z,21.38
2023-05-19T11:00:29.803Z,21.45
2023-05-19T11:03:15.241Z,21.40
2023-05-19T11:05:45.295Z,21.19
2023-05-19T11:08:13.335Z,22.41
2023-05-19T11:10:44.687Z,22.34
2023-05-19T11:13:22.564Z,21.86
2023-05-19T11:15:49.945Z,22.24
2023-05-19T11:18:16.634Z,21.38
2023-05-19T11:20:44.446Z,21.26
2023-05-19T11:23:20.129Z,21.33
2023-05-19T11:25:51.307Z,21.31
2023-05-19T11:28:20.952Z,21.37
2023-05-19T11:30:50.625Z,21.54
2023-05-19T11:33:19.296Z,21.31
2023-05-19T11:35:50.313Z,20.80
2023-05-19T11:38:19.315Z,20.44
2023-05-19T11:40:48.148Z,20.12
2023-05-19T11:43:14.595Z,19.90
2023-05-19T11:45:41.803Z,19.98
2023-05-19T11:48:12.772Z,21.31
2023-05-19T11:50:43.977Z,20.89
2023-05-19T11:53:13.694Z,20.66
2023-05-19T11:55:47.692Z,20.34
2023-05-19T11:58:15.194Z,21.17
2023-05-19T12:00:46.249Z,21.12
2023-05-19T12:03:13.434Z,22.21
2023-05-19T12:05:47.410Z,21.34
2023-05-19T12:08:17.393Z,21.02
2023-05-19T12:10:43.957Z,21.58
2023-05-19T12:13:11.013Z,21.45
2023-05-19T12:15:38.596Z,20.65
2023-05-19T12:18:05.563Z,20.60
2023-05-19T12:20:35.383Z,21.10
2023-05-19T12:23:03.410Z,21.55
2023-05-19T12:25:32.103Z,22.16
2023-05-19T12:28:03.093Z,22.12
2023-05-19T12:30:32.411Z,22.35
2023-05-19T12:32:59.710Z,22.13
2023-05-19T12:35:30.445Z,21.37
2023-05-19T12:37:57.743Z,21.16
2023-05-19T12:40:24.386Z,21.76
2023-05-19T12:42:53.167Z,21.81
2023-05-19T12:45:23.300Z,22.43
2023-05-19T12:47:51.337Z,21.51
2023-05-19T12:50:18.165Z,21.04
2023-05-19T12:52:51.879Z,20.73
2023-05-19T12:55:20.535Z,20.63
2023-05-19T12:57:57.943Z,20.93
2023-05-19T13:00:28.856Z,20.62
2023-05-19T13:03:16.949Z,20.40
2023-05-19T13:05:48.175Z,21.40
2023-05-19T13:08:18.242Z,21.14
2023-05-19T13:10:46.874Z,20.98
2023-05-19T13:13:13.983Z,21.00
2023-05-19T13:15:44.513Z,21.06
2023-05-19T13:18:13.305Z,20.82
2023-05-19T13:20:42.696Z,21.04
2023-05-19T13:23:11.768Z,20.97
2023-05-19T13:25:39.120Z,21.20
2023-05-19T13:28:06.638Z,20.84
2023-05-19T13:30:36.214Z,21.27
2023-05-19T13:33:03.222Z,21.33
2023-05-19T13:35:31.269Z,21.35
2023-05-19T13:37:58.032Z,20.89
2023-05-19T13:40:25.938Z,21.16
2023-05-19T13:42:52.661Z,21.71
2023-05-19T13:45:19.347Z,22.19
2023-05-19T13:47:45.794Z,21.81
2023-05-19T13:50:12.481Z,20.86
2023-05-19T13:52:39.205Z,20.83
2023-05-19T13:55:07.697Z,20.80
2023-05-19T13:57:34.339Z,21.16
2023-05-19T14:00:03.276Z,21.30
2023-05-19T14:02:30.958Z,21.29
2023-05-19T14:04:57.971Z,21.35
2023-05-19T14:07:25.319Z,21.45
2023-05-19T14:09:52.287Z,21.05
2023-05-19T14:12:19.340Z,21.19
2023-05-19T14:14:48.956Z,20.99
2023-05-19T14:17:15.692Z,21.03
2023-05-19T14:19:42.306Z,20.38
2023-05-19T14:22:09.006Z,20.47
2023-05-19T14:24:35.740Z,20.40
2023-05-19T14:27:02.274Z,20.55
2023-05-19T14:29:31.022Z,20.45
2023-05-19T14:31:57.878Z,20.29
2023-05-19T14:34:24.614Z,20.68
2023-05-19T14:36:51.274Z,20.43
2023-05-19T14:39:17.784Z,20.57
2023-05-19T14:41:44.307Z,20.50
2023-05-19T14:44:10.798Z,20.38
2023-05-19T14:46:37.406Z,20.36
2023-05-19T14:49:06.291Z,20.14
2023-05-19T14:51:32.758Z,20.24
2023-05-19T14:54:00.303Z,19.73
2023-05-19T14:56:26.949Z,19.85
2023-05-19T14:58:53.504Z,20.05
2023-05-19T15:01:20.085Z,20.13
2023-05-19T15:03:46.815Z,20.19
2023-05-19T15:06:13.461Z,20.02
2023-05-19T15:08:41.351Z,20.26
2023-05-19T15:11:08.150Z,19.74
2023-05-19T15:13:34.727Z,20.06
2023-05-19T15:16:16.234Z,20.23
2023-05-19T15:18:44.566Z,19.97
2023-05-19T15:21:11.427Z,19.61
2023-05-19T15:23:38.139Z,19.50
2023-05-19T15:26:04.983Z,19.64
2023-05-19T15:28:32.076Z,19.59
2023-05-19T15:30:58.632Z,19.53
2023-05-19T15:33:25.178Z,19.59
2023-05-19T15:35:52.163Z,19.67
2023-05-19T15:38:20.175Z,19.56
2023-05-19T15:40:47.250Z,19.52
2023-05-19T15:43:14.467Z,19.91
2023-05-19T15:45:41.125Z,19.88
2023-05-19T15:48:08.152Z,19.47
2023-05-19T15:50:35.151Z,19.20
2023-05-19T15:53:02.136Z,19.31
2023-05-19T15:55:28.826Z,19.36
2023-05-19T15:57:55.335Z,19.57
2023-05-19T16:00:21.831Z,19.38
2023-05-19T16:02:48.357Z,19.20
2023-05-19T16:05:14.974Z,19.19
2023-05-19T16:07:42.147Z,19.10
2023-05-19T16:10:09.276Z,18.98
2023-05-19T16:12:36.884Z,18.96
2023-05-19T16:15:04.058Z,18.64
2023-05-19T16:17:30.793Z,18.77
2023-05-19T16:19:57.413Z,18.77
2023-05-19T16:22:24.796Z,18.87
2023-05-19T16:24:52.308Z,18.68
2023-05-19T16:27:19.090Z,18.95
2023-05-19T16:29:45.917Z,18.81
2023-05-19T16:32:13.103Z,19.04
2023-05-19T16:34:40.054Z,18.95
2023-05-19T16:37:07.761Z,19.08
2023-05-19T16:39:36.460Z,18.95
2023-05-19T16:42:04.487Z,18.99
2023-05-19T16:44:31.134Z,19.13
2023-05-19T16:46:57.751Z,19.13
2023-05-19T16:49:24.310Z,18.80
2023-05-19T16:51:52.705Z,18.71
2023-05-19T16:54:19.217Z,18.59
2023-05-19T16:56:46.131Z,18.53
2023-05-19T16:59:12.659Z,18.74
2023-05-19T17:01:39.272Z,18.56
2023-05-19T17:04:05.795Z,18.48
2023-05-19T17:06:32.344Z,18.49
2023-05-19T17:08:59.030Z,18.08
2023-05-19T17:11:27.138Z,18.07
2023-05-19T17:13:53.777Z,18.06
2023-05-19T17:16:20.456Z,18.11
2023-05-19T17:18:47.921Z,18.10
2023-05-19T17:21:14.664Z,18.20
2023-05-19T17:23:41.845Z,18.08
2023-05-19T17:26:08.823Z,17.99
2023-05-19T17:28:35.594Z,17.91
2023-05-19T17:31:11.307Z,18.07
2023-05-19T17:33:38.569Z,17.95
2023-05-19T17:36:06.819Z,17.90
2023-05-19T17:38:34.245Z,17.96
2023-05-19T17:41:02.389Z,17.79
2023-05-19T17:43:29.039Z,17.62
2023-05-19T17:45:55.711Z,17.76
2023-05-19T17:48:22.332Z,17.64
2023-05-19T17:50:49.422Z,17.42
2023-05-19T17:53:16.533Z,17.48
2023-05-19T17:55:51.943Z,17.22
2023-05-19T17:58:19.674Z,17.27
2023-05-19T18:00:46.720Z,17.15
2023-05-19T18:03:13.950Z,17.30
2023-05-19T18:05:43.169Z,17.26
2023-05-19T18:08:10.641Z,17.06
2023-05-19T18:10:40.804Z,17.20
2023-05-19T18:13:10.039Z,17.21
2023-05-19T18:15:37.219Z,16.98
2023-05-19T18:18:05.706Z,17.11
2023-05-19T18:20:33.708Z,17.12
2023-05-19T18:23:00.951Z,17.06
2023-05-19T18:25:27.472Z,16.83
2023-05-19T18:27:55.819Z,17.09
2023-05-19T18:30:23.786Z,17.07
2023-05-19T18:32:50.411Z,17.04
2023-05-19T18:35:17.078Z,17.06
2023-05-19T18:37:43.676Z,16.87
2023-05-19T18:40:10.815Z,16.97
2023-05-19T18:42:37.674Z,16.83
2023-05-19T18:45:05.065Z,16.99
2023-05-19T18:47:31.689Z,16.73
2023-05-19T18:49:58.191Z,16.63
2023-05-19T18:52:26.559Z,16.56
2023-05-19T18:54:53.404Z,16.50
2023-05-19T18:57:20.423Z,16.47
2023-05-19T18:59:47.010Z,16.38
2023-05-19T19:02:13.523Z,16.58
2023-05-19T19:04:40.022Z,16.63
2023-05-19T19:07:06.620Z,16.27
2023-05-19T19:09:33.148Z,16.33
2023-05-19T19:11:59.696Z,15.91
2023-05-19T19:14:26.291Z,15.83
2023-05-19T19:16:52.925Z,15.70
2023-05-19T19:19:19.613Z,15.69
2023-05-19T19:21:46.251Z,15.32
2023-05-19T19:24:13.790Z,15.31
2023-05-19T19:26:40.448Z,15.21
2023-05-19T19:29:07.035Z,15.14
2023-05-19T19:31:33.649Z,15.47
2023-05-19T19:34:03.547Z,15.42
2023-05-19T19:36:30.063Z,15.29
2023-05-19T19:38:56.652Z,15.34
2023-05-19T19:41:23.206Z,15.22
2023-05-19T19:43:50.885Z,15.25
2023-05-19T19:46:17.505Z,15.12
2023-05-19T19:48:44.256Z,15.05
2023-05-19T19:51:10.745Z,15.13
2023-05-19T19:53:37.243Z,14.83
2023-05-19T19:56:04.927Z,14.88
2023-05-19T19:58:31.624Z,14.78
2023-05-19T20:01:02.037Z,14.67
2023-05-19T20:03:29.636Z,14.63
2023-05-19T20:05:57.102Z,14.50
2023-05-19T20:08:25.346Z,14.55
2023-05-19T20:10:52.686Z,14.28
2023-05-19T20:13:19.406Z,14.25
2023-05-19T20:15:47.224Z,14.27
2023-05-19T20:18:14.407Z,14.07
2023-05-19T20:20:41.769Z,14.28
2023-05-19T20:23:08.786Z,13.87
2023-05-19T20:25:53.712Z,14.01
2023-05-19T20:28:25.785Z,13.87
2023-05-19T20:30:52.447Z,13.84
2023-05-19T20:33:19.014Z,13.59
2023-05-19T20:35:45.791Z,13.49
2023-05-19T20:38:12.315Z,13.47
2023-05-19T20:40:38.838Z,13.67
2023-05-19T20:43:05.670Z,12.87
2023-05-19T20:45:32.512Z,12.80
2023-05-19T20:47:59.674Z,12.51
2023-05-19T20:50:26.209Z,12.41
2023-05-19T20:52:52.686Z,12.52
2023-05-19T20:55:19.258Z,12.44
2023-05-19T20:57:45.842Z,12.74
2023-05-19T21:00:13.094Z,12.83
2023-05-19T21:02:39.694Z,12.31
2023-05-19T21:05:06.726Z,12.48
2023-05-19T21:07:33.274Z,12.44
2023-05-19T21:09:59.830Z,12.43
2023-05-19T21:12:28.835Z,12.26
2023-05-19T21:14:55.376Z,12.43
2023-05-19T21:17:21.904Z,12.01
2023-05-19T21:19:49.171Z,12.27
2023-05-19T21:22:17.498Z,11.97
2023-05-19T21:24:44.143Z,11.69
2023-05-19T21:27:10.592Z,12.03
2023-05-19T21:29:37.108Z,11.58
2023-05-19T21:32:03.944Z,12.10
2023-05-19T21:34:30.447Z,12.18
2023-05-19T21:36:56.977Z,11.93
2023-05-19T21:39:23.453Z,11.94
2023-05-19T21:41:51.187Z,11.90
2023-05-19T21:44:17.818Z,11.78
2023-05-19T21:46:44.324Z,11.89
2023-05-19T21:49:10.812Z,11.74
2023-05-19T21:51:37.365Z,11.97
2023-05-19T21:54:03.966Z,11.33
2023-05-19T21:56:30.529Z,11.93
2023-05-19T21:58:57.106Z,11.92
2023-05-19T22:01:23.684Z,11.47
2023-05-19T22:03:50.368Z,11.88
2023-05-19T22:06:16.863Z,11.46
2023-05-19T22:08:43.415Z,11.78
2023-05-19T22:11:09.984Z,11.74
2023-05-19T22:13:40.889Z,11.70
2023-05-19T22:16:08.414Z,11.61
2023-05-19T22:18:35.063Z,11.80
2023-05-19T22:21:01.658Z,11.26
2023-05-19T22:23:28.248Z,11.40
2023-05-19T22:25:54.779Z,11.18
2023-05-19T22:28:21.336Z,11.44
2023-05-19T22:30:47.845Z,11.30
2023-05-19T22:33:14.662Z,11.17
2023-05-19T22:35:42.471Z,11.04
2023-05-19T22:38:10.616Z,10.84
2023-05-19T22:40:37.647Z,11.26
2023-05-19T22:43:04.576Z,11.28
2023-05-19T22:45:32.231Z,10.85
2023-05-19T22:47:58.879Z,11.25
2023-05-19T22:50:25.719Z,10.72
2023-05-19T22:52:52.247Z,11.02
2023-05-19T22:55:18.969Z,10.74
2023-05-19T22:57:45.586Z,11.13
2023-05-19T23:00:14.287Z,10.88
2023-05-19T23:02:41.962Z,10.79
2023-05-19T23:05:08.875Z,10.65
2023-05-19T23:07:35.431Z,10.77
2023-05-19T23:10:03.413Z,10.93
2023-05-19T23:12:29.986Z,10.48
2023-05-19T23:14:56.488Z,10.82
2023-05-19T23:17:22.969Z,10.63
2023-05-19T23:19:49.542Z,10.82
2023-05-19T23:22:16.020Z,10.80
2023-05-19T23:24:42.470Z,10.58
2023-05-19T23:27:08.962Z,10.96
2023-05-19T23:29:35.439Z,10.50
2023-05-19T23:32:02.053Z,10.74
2023-05-19T23:34:28.564Z,10.71
2023-05-19T23:36:55.075Z,10.93
2023-05-19T23:39:22.042Z,10.64
2023-05-19T23:41:48.549Z,10.54
2023-05-19T23:44:15.055Z,10.58
2023-05-19T23:46:41.874Z,10.58
2023-05-19T23:49:08.442Z,10.70
2023-05-19T23:51:34.965Z,10.46
2023-05-19T23:54:01.488Z,10.41
2023-05-19T23:56:28.056Z,10.65
2023-05-19T23:58:54.586Z,10.86
